Time;durP1;ratioP1;P1;durP2;ratioP2;P2;SDS_P1;SDS_P2;PMS_P1;PMS_P2;Temp;Humidity;BMP_temperature;BMP_pressure;BME280_temperature;BME280_humidity;BME280_pressure;Samples;Min_cycle;Max_cycle;Signal;HPM_P1;HPM_P2
2022/02/22 00:00:55;;;;;;;;;;;;;;;7.45;56.64;98289.25;1761997;81;20116;-83
2022/02/22 00:03:22;;;;;;;;;;;;;;;7.53;56.81;98294.39;1760754;80;20346;-83
2022/02/22 00:05:48;;;;;;;;;;;;;;;7.62;56.50;98297.75;1760632;80;20179;-83
2022/02/22 00:08:13;;;;;;;;;;;;;;;7.57;56.56;98300.09;1761454;80;21082;-83
2022/02/22 00:10:39;;;;;;;;;;;;;;;7.39;56.97;98301.28;1764228;80;20224;-83
2022/02/22 00:13:04;;;;;;;;;;;;;;;7.47;56.57;98309.09;1773472;80;20179;-83
2022/02/22 00:15:30;;;;;;;;;;;;;;;7.31;56.88;98305.31;1745336;81;20150;-85
2022/02/22 00:17:55;;;;;;;;;;;;;;;7.47;56.71;98311.72;1761210;79;20141;-83
2022/02/22 00:20:21;;;;;;;;;;;;;;;7.58;56.66;98316.98;1755824;79;20574;-84
2022/02/22 00:22:47;;;;;;;;;;;;;;;7.72;56.42;98316.66;1763964;79;20529;-83
2022/02/22 00:25:12;;;;;;;;;;;;;;;7.58;56.30;98300.41;1765680;79;20125;-84
2022/02/22 00:27:40;;;;;;;;;;;;;;;7.51;56.65;98328.72;1769127;79;20271;-83
2022/02/22 00:30:06;;;;;;;;;;;;;;;7.40;56.92;98328.38;1768083;79;20468;-84
2022/02/22 00:32:32;;;;;;;;;;;;;;;7.28;57.24;98329.30;1764182;79;21069;-83
2022/02/22 00:34:58;;;;;;;;;;;;;;;7.54;56.88;98337.55;1768152;79;20516;-84
2022/02/22 00:37:25;;;;;;;;;;;;;;;7.54;56.68;98329.67;1772109;79;20145;-85
2022/02/22 00:39:50;;;;;;;;;;;;;;;7.64;56.74;98344.34;1763101;79;20149;-85
2022/02/22 00:42:17;;;;;;;;;;;;;;;7.62;56.81;98341.09;1766463;79;20178;-83
2022/02/22 00:44:43;;;;;;;;;;;;;;;7.70;56.66;98344.93;1762817;79;21246;-84
2022/02/22 00:47:08;;;;;;;;;;;;;;;7.67;56.66;98334.78;1763102;79;20480;-84
2022/02/22 00:49:34;;;;;;;;;;;;;;;7.65;56.86;98341.53;1762404;79;20152;-81
2022/02/22 00:52:00;;;;;;;;;;;;;;;7.32;57.44;98335.84;1765911;79;20113;-81
2022/02/22 00:54:26;;;;;;;;;;;;;;;7.36;57.42;98341.03;1766593;79;20162;-84
2022/02/22 00:56:52;;;;;;;;;;;;;;;7.37;57.60;98342.67;1772144;80;21087;-84
2022/02/22 00:59:17;;;;;;;;;;;;;;;7.18;57.84;98342.20;1780846;79;20151;-84
2022/02/22 01:01:43;;;;;;;;;;;;;;;7.01;58.25;98357.78;1780256;79;20123;-83
2022/02/22 01:04:08;;;;;;;;;;;;;;;7.31;57.86;98351.27;1771489;80;20601;-83
2022/02/22 01:06:34;;;;;;;;;;;;;;;7.42;57.36;98358.69;1729503;81;20188;-82
2022/02/22 01:08:59;;;;;;;;;;;;;;;7.25;57.69;98366.42;1723968;82;21984;-83
2022/02/22 01:11:25;;;;;;;;;;;;;;;7.00;58.30;98363.51;1710616;83;20164;-83
2022/02/22 01:13:51;;;;;;;;;;;;;;;7.38;57.77;98364.00;1708785;83;20207;-83
2022/02/22 01:16:16;;;;;;;;;;;;;;;7.38;58.03;98357.44;1713640;83;20430;-83
2022/02/22 01:18:42;;;;;;;;;;;;;;;7.31;58.47;98355.20;1714331;83;20192;-84
2022/02/22 01:21:07;;;;;;;;;;;;;;;7.24;58.81;98351.66;1712542;83;21149;-83
2022/02/22 01:23:33;;;;;;;;;;;;;;;7.26;59.05;98361.50;1711045;82;20613;-83
2022/02/22 01:26:00;;;;;;;;;;;;;;;7.04;59.24;98370.55;1714125;81;20155;-83
2022/02/22 01:28:25;;;;;;;;;;;;;;;7.13;59.37;98380.46;1710469;83;20221;-83
2022/02/22 01:30:51;;;;;;;;;;;;;;;7.05;60.03;98396.29;1709634;83;20206;-84
2022/02/22 01:33:17;;;;;;;;;;;;;;;7.13;60.26;98386.55;1708577;83;21129;-82
2022/02/22 01:35:43;;;;;;;;;;;;;;;6.83;62.83;98393.50;1713182;83;20206;-84
2022/02/22 01:38:08;;;;;;;;;;;;;;;7.18;62.37;98378.95;1711534;83;20512;-83
2022/02/22 01:40:34;;;;;;;;;;;;;;;7.11;62.49;98392.96;1710105;82;20142;-83
2022/02/22 01:42:59;;;;;;;;;;;;;;;6.99;62.67;98391.23;1706880;82;20151;-83
2022/02/22 01:45:25;;;;;;;;;;;;;;;7.07;62.39;98385.11;1725707;82;21913;-83
2022/02/22 01:47:51;;;;;;;;;;;;;;;7.05;62.34;98404.97;1725980;82;20221;-84
2022/02/22 01:50:16;;;;;;;;;;;;;;;6.97;62.30;98389.30;1727055;81;20195;-83
2022/02/22 01:52:42;;;;;;;;;;;;;;;6.99;62.17;98384.68;1723410;81;20136;-83
2022/02/22 01:55:08;;;;;;;;;;;;;;;7.10;61.92;98387.38;1726661;81;20700;-84
2022/02/22 01:57:34;;;;;;;;;;;;;;;7.14;61.57;98393.41;1724323;82;21099;-83
2022/02/22 02:00:00;;;;;;;;;;;;;;;6.82;62.90;98399.73;1721128;82;20214;-83
2022/02/22 02:02:25;;;;;;;;;;;;;;;6.80;63.44;98409.09;1701498;83;20180;-82
2022/02/22 02:04:51;;;;;;;;;;;;;;;6.86;63.69;98412.02;1727651;79;20254;-82
2022/02/22 02:07:16;;;;;;;;;;;;;;;6.80;64.15;98420.09;1765344;79;20476;-83
2022/02/22 02:09:42;;;;;;;;;;;;;;;6.87;63.91;98401.83;1763697;80;21146;-83
2022/02/22 02:12:08;;;;;;;;;;;;;;;7.01;63.42;98394.02;1765469;80;20157;-83
2022/02/22 02:14:33;;;;;;;;;;;;;;;6.99;63.31;98392.55;1771026;79;20202;-82
2022/02/22 02:16:59;;;;;;;;;;;;;;;6.94;63.38;98398.83;1761194;80;20661;-83
2022/02/22 02:19:25;;;;;;;;;;;;;;;7.00;63.23;98407.31;1770291;80;20175;-83
2022/02/22 02:21:51;;;;;;;;;;;;;;;6.95;63.47;98403.09;1766814;79;21079;-83
2022/02/22 02:24:24;;;;;;;;;;;;;;;7.00;63.27;98406.00;1762458;80;20185;-83
2022/02/22 02:26:50;;;;;;;;;;;;;;;6.96;63.74;98406.03;1759508;80;20207;-83
2022/02/22 02:29:18;;;;;;;;;;;;;;;6.88;64.39;98417.39;1759169;80;20191;-83
2022/02/22 02:31:44;;;;;;;;;;;;;;;6.86;65.01;98418.59;1763182;80;20172;-83
2022/02/22 02:34:13;;;;;;;;;;;;;;;6.64;66.27;98432.82;1757951;80;21079;-83
2022/02/22 02:36:39;;;;;;;;;;;;;;;6.65;66.87;98439.71;1758469;79;20209;-83
2022/02/22 02:39:06;;;;;;;;;;;;;;;6.74;67.20;98448.33;1763476;80;20202;-82
2022/02/22 02:41:31;;;;;;;;;;;;;;;6.70;67.95;98451.80;1759752;80;20151;-83
2022/02/22 02:44:05;;;;;;;;;;;;;;;6.54;69.15;98451.41;1767964;80;20125;-83
2022/02/22 02:46:31;;;;;;;;;;;;;;;6.63;69.33;98449.06;1758513;79;20977;-83
2022/02/22 02:48:57;;;;;;;;;;;;;;;6.76;69.06;98456.36;1753377;80;20167;-83
2022/02/22 02:51:23;;;;;;;;;;;;;;;6.71;69.54;98457.86;1762564;80;20182;-82
2022/02/22 02:53:52;;;;;;;;;;;;;;;6.75;69.58;98458.64;1766912;80;20143;-83
2022/02/22 02:56:24;;;;;;;;;;;;;;;6.58;70.17;98458.43;1763505;80;20180;-85
2022/02/22 02:58:51;;;;;;;;;;;;;;;6.62;69.97;98459.73;1765479;80;21065;-84
2022/02/22 03:01:16;;;;;;;;;;;;;;;6.68;69.92;98461.66;1765813;79;20159;-83
2022/02/22 03:03:42;;;;;;;;;;;;;;;6.75;69.49;98465.20;1764412;79;20203;-83
2022/02/22 03:06:07;;;;;;;;;;;;;;;6.71;69.83;98458.69;1759372;79;20985;-83
2022/02/22 03:08:33;;;;;;;;;;;;;;;6.66;70.15;98464.93;1762953;80;20138;-84
2022/02/22 03:10:59;;;;;;;;;;;;;;;6.66;70.18;98479.36;1768637;80;21197;-84
2022/02/22 03:13:24;;;;;;;;;;;;;;;6.62;70.44;98468.91;1765665;80;20246;-82
2022/02/22 03:15:50;;;;;;;;;;;;;;;6.60;70.31;98498.41;1761204;80;20139;-84
2022/02/22 03:18:15;;;;;;;;;;;;;;;6.61;70.39;98492.17;1761128;79;20135;-82
2022/02/22 03:20:41;;;;;;;;;;;;;;;6.60;70.37;98493.16;1761599;80;20204;-82
2022/02/22 03:23:06;;;;;;;;;;;;;;;6.56;70.57;98494.00;1767536;80;21030;-85
2022/02/22 03:25:32;;;;;;;;;;;;;;;6.65;70.54;98491.66;1763737;79;20153;-84
2022/02/22 03:27:59;;;;;;;;;;;;;;;6.52;71.12;98505.00;1761743;80;20143;-84
2022/02/22 03:30:26;;;;;;;;;;;;;;;6.53;71.69;98505.34;1754850;80;20741;-82
2022/02/22 03:32:52;;;;;;;;;;;;;;;6.40;72.20;98525.05;1756999;80;20931;-83
2022/02/22 03:35:18;;;;;;;;;;;;;;;6.52;72.15;98516.80;1765492;80;21166;-82
2022/02/22 03:37:44;;;;;;;;;;;;;;;6.37;73.04;98526.70;1758923;80;20794;-82
2022/02/22 03:40:09;;;;;;;;;;;;;;;6.29;73.67;98513.13;1766341;79;20425;-82
2022/02/22 03:42:37;;;;;;;;;;;;;;;6.43;73.61;98532.58;1762011;80;20188;-84
2022/02/22 03:45:03;;;;;;;;;;;;;;;6.07;74.58;98543.47;1762205;80;20167;-82
2022/02/22 03:47:29;;;;;;;;;;;;;;;6.30;73.98;98532.28;1759493;80;20593;-82
2022/02/22 03:49:55;;;;;;;;;;;;;;;6.16;74.57;98552.64;1764441;80;20136;-82
2022/02/22 03:52:20;;;;;;;;;;;;;;;5.99;75.58;98551.35;1760558;80;20157;-82
2022/02/22 03:54:46;;;;;;;;;;;;;;;5.81;76.56;98558.55;1759653;79;20124;-82
2022/02/22 03:57:11;;;;;;;;;;;;;;;5.74;77.35;98535.63;1762316;80;21271;-82
2022/02/22 03:59:37;;;;;;;;;;;;;;;5.59;77.95;98556.91;1762702;80;20519;-82
2022/02/22 04:02:03;;;;;;;;;;;;;;;5.70;78.20;98566.23;1766803;80;20176;-85
2022/02/22 04:04:29;;;;;;;;;;;;;;;5.77;77.94;98546.78;1760898;80;20173;-84
2022/02/22 04:06:54;;;;;;;;;;;;;;;5.84;77.84;98560.83;1735187;80;20203;-84
2022/02/22 04:09:20;;;;;;;;;;;;;;;5.88;77.29;98573.44;1724632;82;20533;-85
2022/02/22 04:11:45;;;;;;;;;;;;;;;5.90;77.24;98574.58;1706710;83;20450;-84
2022/02/22 04:14:11;;;;;;;;;;;;;;;5.96;76.80;98575.23;1713938;83;20161;-84
2022/02/22 04:16:36;;;;;;;;;;;;;;;5.80;76.68;98604.08;1714889;82;20132;-84
2022/02/22 04:19:02;;;;;;;;;;;;;;;5.91;76.11;98577.54;1712795;83;20456;-84
2022/02/22 04:21:28;;;;;;;;;;;;;;;5.98;75.84;98590.34;1712555;83;20462;-84
2022/02/22 04:23:53;;;;;;;;;;;;;;;6.02;75.55;98587.70;1711559;83;21113;-82
2022/02/22 04:26:19;;;;;;;;;;;;;;;6.10;74.88;98615.20;1713283;82;21321;-83
2022/02/22 04:28:44;;;;;;;;;;;;;;;6.05;75.13;98603.09;1711996;83;20223;-85
2022/02/22 04:31:10;;;;;;;;;;;;;;;6.19;74.34;98587.70;1708014;83;20159;-83
2022/02/22 04:33:35;;;;;;;;;;;;;;;5.99;74.35;98598.52;1745439;81;20161;-84
2022/02/22 04:36:01;;;;;;;;;;;;;;;6.21;73.76;98607.49;1728422;82;21107;-84
2022/02/22 04:38:27;;;;;;;;;;;;;;;6.30;73.44;98607.00;1728375;82;20379;-84
2022/02/22 04:40:52;;;;;;;;;;;;;;;6.32;72.96;98606.33;1725318;82;20199;-84
2022/02/22 04:43:18;;;;;;;;;;;;;;;6.14;73.33;98618.80;1725111;82;20151;-84
2022/02/22 04:45:43;;;;;;;;;;;;;;;6.21;73.34;98625.03;1724567;82;20939;-85
2022/02/22 04:48:09;;;;;;;;;;;;;;;6.32;73.17;98608.14;1710009;83;20993;-83
2022/02/22 04:50:35;;;;;;;;;;;;;;;6.31;72.99;98627.00;1746068;81;20216;-84
2022/02/22 04:53:00;;;;;;;;;;;;;;;6.25;73.02;98608.00;1708448;83;20434;-84
2022/02/22 04:55:26;;;;;;;;;;;;;;;6.26;73.35;98609.61;1720313;83;20494;-82
2022/02/22 04:57:51;;;;;;;;;;;;;;;6.32;73.13;98647.47;1720697;83;20338;-83
2022/02/22 05:00:17;;;;;;;;;;;;;;;6.28;73.12;98624.20;1721329;81;21144;-81
2022/02/22 05:02:43;;;;;;;;;;;;;;;6.41;73.02;98634.67;1720060;82;20273;-82
2022/02/22 05:05:09;;;;;;;;;;;;;;;6.35;73.16;98655.81;1716783;82;20195;-85
2022/02/22 05:07:34;;;;;;;;;;;;;;;6.24;73.61;98645.17;1750142;79;20353;-85
2022/02/22 05:10:00;;;;;;;;;;;;;;;6.27;73.65;98629.61;1758694;79;20448;-83
2022/02/22 05:12:25;;;;;;;;;;;;;;;6.34;73.48;98668.61;1758589;79;21095;-83
2022/02/22 05:14:51;;;;;;;;;;;;;;;6.34;73.70;98676.48;1750997;79;20346;-83
2022/02/22 05:17:17;;;;;;;;;;;;;;;6.33;73.90;98680.58;1746340;79;20494;-82
2022/02/22 05:19:42;;;;;;;;;;;;;;;6.42;73.76;98693.50;1749437;79;20124;-83
2022/02/22 05:22:08;;;;;;;;;;;;;;;6.17;74.46;98676.14;1749810;79;20149;-83
2022/02/22 05:24:33;;;;;;;;;;;;;;;6.29;74.40;98676.13;1758364;79;22045;-82
2022/02/22 05:26:59;;;;;;;;;;;;;;;6.15;75.08;98678.11;1751485;79;20146;-82
2022/02/22 05:29:24;;;;;;;;;;;;;;;6.43;74.00;98686.45;1752882;79;20596;-82
2022/02/22 05:31:50;;;;;;;;;;;;;;;6.27;74.42;98697.77;1752748;79;20126;-82
2022/02/22 05:34:16;;;;;;;;;;;;;;;6.25;74.65;98685.33;1744918;79;20163;-82
2022/02/22 05:36:41;;;;;;;;;;;;;;;6.38;74.30;98686.94;1757324;79;21189;-82
2022/02/22 05:39:07;;;;;;;;;;;;;;;6.41;74.39;98702.34;1748532;79;20510;-82
2022/02/22 05:41:32;;;;;;;;;;;;;;;6.20;75.28;98724.30;1756625;79;20150;-81
2022/02/22 05:43:58;;;;;;;;;;;;;;;6.43;74.63;98710.88;1754500;79;20130;-83
2022/02/22 05:46:23;;;;;;;;;;;;;;;6.33;75.08;98710.22;1757228;79;20360;-82
2022/02/22 05:48:49;;;;;;;;;;;;;;;6.26;75.24;98722.34;1750516;81;21094;-82
2022/02/22 05:51:15;;;;;;;;;;;;;;;6.31;75.42;98716.13;1753382;79;21332;-81
2022/02/22 05:53:41;;;;;;;;;;;;;;;6.22;75.59;98717.92;1741171;79;20179;-82
2022/02/22 05:56:06;;;;;;;;;;;;;;;6.40;74.88;98724.33;1749727;81;20129;-82
2022/02/22 05:58:32;;;;;;;;;;;;;;;6.35;75.34;98733.66;1750535;79;20235;-82
2022/02/22 06:00:57;;;;;;;;;;;;;;;6.49;74.73;98736.11;1751672;79;21124;-82
2022/02/22 06:03:23;;;;;;;;;;;;;;;6.52;74.71;98777.74;1762025;79;20138;-81
2022/02/22 06:05:49;;;;;;;;;;;;;;;6.29;75.57;98761.33;1756883;79;20143;-81
2022/02/22 06:08:14;;;;;;;;;;;;;;;6.14;75.92;98777.37;1751189;79;20572;-82
2022/02/22 06:10:40;;;;;;;;;;;;;;;6.38;75.41;98791.81;1743562;79;20134;-82
2022/02/22 06:13:05;;;;;;;;;;;;;;;6.20;76.03;98790.67;1750329;81;21145;-84
2022/02/22 06:15:31;;;;;;;;;;;;;;;6.19;76.34;98801.31;1755664;79;20264;-83
2022/02/22 06:17:56;;;;;;;;;;;;;;;6.50;75.24;98781.03;1747906;79;20125;-81
2022/02/22 06:20:22;;;;;;;;;;;;;;;6.46;75.29;98787.91;1758641;79;20429;-81
2022/02/22 06:22:48;;;;;;;;;;;;;;;6.28;76.03;98809.52;1754012;79;20774;-81
2022/02/22 06:25:13;;;;;;;;;;;;;;;6.27;76.36;98781.66;1751175;79;21160;-81
2022/02/22 06:27:49;;;;;;;;;;;;;;;6.43;75.81;98809.22;1759285;79;20538;-80
2022/02/22 06:30:15;;;;;;;;;;;;;;;6.36;76.07;98797.73;1758425;79;20645;-81
2022/02/22 06:32:41;;;;;;;;;;;;;;;6.24;76.54;98819.49;1755768;79;20181;-81
2022/02/22 06:35:07;;;;;;;;;;;;;;;6.29;76.71;98798.88;1752621;79;20232;-81
2022/02/22 06:37:32;;;;;;;;;;;;;;;6.42;76.45;98798.39;1760652;79;21089;-80
2022/02/22 06:39:59;;;;;;;;;;;;;;;6.51;76.39;98816.74;1753952;79;20887;-80
2022/02/22 06:42:24;;;;;;;;;;;;;;;6.32;77.28;98809.51;1750630;79;20191;-80
2022/02/22 06:44:50;;;;;;;;;;;;;;;6.51;76.83;98807.56;1758175;79;20157;-81
2022/02/22 06:47:16;;;;;;;;;;;;;;;6.24;77.52;98820.80;1746849;79;20340;-82
2022/02/22 06:49:42;;;;;;;;;;;;;;;6.29;77.26;98832.12;1757479;79;21185;-80
2022/02/22 06:52:08;;;;;;;;;;;;;;;6.28;77.56;98837.05;1757294;79;20222;-84
2022/02/22 06:54:34;;;;;;;;;;;;;;;6.20;78.05;98829.14;1751913;79;20178;-81
2022/02/22 06:56:59;;;;;;;;;;;;;;;6.32;77.53;98859.83;1751585;79;20169;-81
2022/02/22 06:59:25;;;;;;;;;;;;;;;6.39;77.37;98834.11;1750453;79;20397;-81
2022/02/22 07:01:50;;;;;;;;;;;;;;;6.44;77.10;98847.55;1749663;79;21103;-81
2022/02/22 07:04:16;;;;;;;;;;;;;;;6.32;77.54;98871.63;1758857;79;20156;-81
2022/02/22 07:06:41;;;;;;;;;;;;;;;6.41;77.00;98828.20;1754885;79;20226;-81
2022/02/22 07:09:07;;;;;;;;;;;;;;;6.41;76.87;98854.42;1749466;79;20457;-80
2022/02/22 07:11:32;;;;;;;;;;;;;;;;;;1750223;79;20132;-81
2022/02/22 07:13:58;;;;;;;;;;;;;;;6.14;77.67;98922.83;1755843;79;20213;-81
2022/02/22 07:16:24;;;;;;;;;;;;;;;6.22;77.35;98909.78;1749570;79;20298;-81
2022/02/22 07:18:49;;;;;;;;;;;;;;;6.35;77.08;98906.20;1751558;79;20229;-81
2022/02/22 07:21:15;;;;;;;;;;;;;;;6.31;77.54;98885.23;1748561;79;20181;-81
2022/02/22 07:23:41;;;;;;;;;;;;;;;6.40;77.60;98878.19;1755658;79;20460;-81
2022/02/22 07:26:06;;;;;;;;;;;;;;;6.34;77.63;98905.89;1748894;79;21074;-80
2022/02/22 07:28:32;;;;;;;;;;;;;;;6.54;76.74;98868.88;1750461;79;20204;-82
2022/02/22 07:30:57;;;;;;;;;;;;;;;6.50;77.06;98880.69;1746419;79;20153;-82
2022/02/22 07:33:23;;;;;;;;;;;;;;;6.60;76.56;98911.50;1749799;79;20126;-80
2022/02/22 07:35:49;;;;;;;;;;;;;;;6.63;76.34;98902.00;1757929;79;20166;-81
2022/02/22 07:38:14;;;;;;;;;;;;;;;6.49;76.66;98934.11;1746774;79;21111;-81
2022/02/22 07:40:40;;;;;;;;;;;;;;;6.58;75.74;98906.92;1746205;79;20347;-83
2022/02/22 07:43:06;;;;;;;;;;;;;;;6.36;76.43;98964.72;1753358;79;20166;-81
2022/02/22 07:45:32;;;;;;;;;;;;;;;6.43;76.76;98946.05;1752522;79;20252;-79
2022/02/22 07:47:59;;;;;;;;;;;;;;;6.45;76.93;98923.94;1752018;79;20137;-79
2022/02/22 07:50:25;;;;;;;;;;;;;;;6.40;76.88;98966.03;1759646;79;20516;-79
2022/02/22 07:52:50;;;;;;;;;;;;;;;6.38;77.11;98962.25;1760480;79;20151;-79
2022/02/22 07:55:16;;;;;;;;;;;;;;;6.25;79.71;98967.14;1748440;79;20157;-79
2022/02/22 07:57:42;;;;;;;;;;;;;;;6.31;80.39;98958.64;1751131;81;20270;-80
2022/02/22 08:00:08;;;;;;;;;;;;;;;6.47;79.89;98962.61;1751695;79;20568;-81
2022/02/22 08:02:34;;;;;;;;;;;;;;;6.54;79.45;98973.78;1741836;81;21138;-79
2022/02/22 08:05:00;;;;;;;;;;;;;;;6.59;79.24;98955.78;1770284;79;20198;-79
2022/02/22 08:07:26;;;;;;;;;;;;;;;6.45;79.10;98960.65;1772965;79;20155;-82
2022/02/22 08:09:51;;;;;;;;;;;;;;;6.70;78.10;98955.98;1779180;79;20923;-79
2022/02/22 08:12:17;;;;;;;;;;;;;;;6.63;78.04;98962.33;1780863;79;20516;-79
2022/02/22 08:14:42;;;;;;;;;;;;;;;6.42;77.66;98998.98;1781785;79;20598;-81
2022/02/22 08:17:08;;;;;;;;;;;;;;;6.47;77.77;98986.22;1781722;79;20167;-82
2022/02/22 08:19:34;;;;;;;;;;;;;;;6.41;77.26;98997.84;1756599;81;20166;-82
2022/02/22 08:21:59;;;;;;;;;;;;;;;6.66;76.71;98996.11;1764627;80;20145;-79
2022/02/22 08:24:25;;;;;;;;;;;;;;;6.54;77.50;99013.13;1755154;80;20149;-81
2022/02/22 08:26:54;;;;;;;;;;;;;;;6.63;76.96;99012.17;1755993;81;21199;-80
2022/02/22 08:29:20;;;;;;;;;;;;;;;6.52;77.16;99020.34;1786357;80;20642;-80
2022/02/22 08:31:45;;;;;;;;;;;;;;;6.55;76.89;99046.25;1758675;80;20293;-80
2022/02/22 08:34:11;;;;;;;;;;;;;;;6.66;76.66;99034.16;1769166;80;20147;-80
2022/02/22 08:36:37;;;;;;;;;;;;;;;6.62;76.57;99036.78;1757403;80;20228;-80
2022/02/22 08:39:02;;;;;;;;;;;;;;;6.71;76.74;99025.34;1756819;80;21238;-80
2022/02/22 08:41:28;;;;;;;;;;;;;;;6.82;76.00;99061.77;1751832;80;21041;-81
2022/02/22 08:43:53;;;;;;;;;;;;;;;6.85;76.47;99038.30;1755278;80;20135;-80
2022/02/22 08:46:20;;;;;;;;;;;;;;;6.84;76.37;99044.55;1756041;80;20094;-79
2022/02/22 08:48:45;;;;;;;;;;;;;;;6.94;75.58;99058.84;1758688;80;20162;-83
2022/02/22 08:51:11;;;;;;;;;;;;;;;6.77;76.24;99060.59;1733287;81;21850;-81
2022/02/22 08:53:38;;;;;;;;;;;;;;;6.82;75.55;99069.64;1759623;80;20195;-79
2022/02/22 08:56:07;;;;;;;;;;;;;;;6.85;75.99;99078.17;1762533;80;20144;-80
2022/02/22 08:58:32;;;;;;;;;;;;;;;7.11;75.13;99058.40;1764390;80;20150;-79
2022/02/22 09:00:58;;;;;;;;;;;;;;;7.22;74.89;99084.84;1763133;80;20264;-80
2022/02/22 09:03:26;;;;;;;;;;;;;;;7.30;74.43;99078.28;1767636;80;21112;-80
2022/02/22 09:05:52;;;;;;;;;;;;;;;7.26;73.81;99071.73;1765575;80;20092;-80
2022/02/22 09:08:19;;;;;;;;;;;;;;;7.46;72.67;99078.33;1757316;80;20661;-79
2022/02/22 09:10:45;;;;;;;;;;;;;;;7.39;72.86;99099.64;1750736;80;20230;-80
2022/02/22 09:13:14;;;;;;;;;;;;;;;7.10;73.34;99103.53;1734491;80;20482;-81
2022/02/22 09:15:40;;;;;;;;;;;;;;;7.10;72.73;99106.63;1773745;80;21184;-81
2022/02/22 09:18:05;;;;;;;;;;;;;;;7.06;72.59;99086.44;1757581;80;20169;-80
2022/02/22 09:20:31;;;;;;;;;;;;;;;7.31;71.98;99091.25;1754407;80;20118;-82
2022/02/22 09:22:57;;;;;;;;;;;;;;;7.36;71.82;99094.23;1763766;80;20195;-81
2022/02/22 09:25:23;;;;;;;;;;;;;;;7.61;71.17;99096.06;1759817;80;20225;-80
2022/02/22 09:27:49;;;;;;;;;;;;;;;7.48;71.17;99101.80;1764268;80;21151;-80
2022/02/22 09:30:16;;;;;;;;;;;;;;;7.37;71.35;99106.88;1758977;80;20153;-80
2022/02/22 09:32:46;;;;;;;;;;;;;;;7.32;71.51;99114.42;1764735;80;20147;-80
2022/02/22 09:35:13;;;;;;;;;;;;;;;7.53;70.68;99109.51;1765609;80;20207;-80
2022/02/22 09:37:39;;;;;;;;;;;;;;;7.29;71.50;99117.37;1759555;80;20178;-81
2022/02/22 09:40:06;;;;;;;;;;;;;;;7.41;71.04;99116.08;1759618;80;22029;-81
2022/02/22 09:42:31;;;;;;;;;;;;;;;7.50;70.50;99121.69;1753938;80;20485;-80
2022/02/22 09:44:57;;;;;;;;;;;;;;;7.77;70.17;99122.36;1765743;80;20127;-80
2022/02/22 09:47:23;;;;;;;;;;;;;;;7.45;70.44;99142.34;1758111;80;20131;-81
2022/02/22 09:49:48;;;;;;;;;;;;;;;7.37;69.26;99149.70;1753288;80;20160;-81
2022/02/22 09:52:14;;;;;;;;;;;;;;;7.50;68.72;99141.38;1764647;80;21152;-80
2022/02/22 09:54:40;;;;;;;;;;;;;;;7.58;67.79;99156.81;1764886;80;20497;-81
2022/02/22 09:57:05;;;;;;;;;;;;;;;7.60;66.06;99162.72;1761406;80;20143;-80
2022/02/22 09:59:31;;;;;;;;;;;;;;;7.54;63.68;99203.11;1759716;80;20181;-81
2022/02/22 10:01:57;;;;;;;;;;;;;;;7.64;62.59;99166.17;1759168;80;20143;-79
2022/02/22 10:04:23;;;;;;;;;;;;;;;7.64;61.59;99163.55;1762737;80;22004;-79
2022/02/22 10:06:52;;;;;;;;;;;;;;;7.63;61.75;99209.69;1760865;80;20216;-80
2022/02/22 10:09:19;;;;;;;;;;;;;;;7.96;61.08;99159.83;1729950;80;20204;-80
2022/02/22 10:11:49;;;;;;;;;;;;;;;8.03;62.03;99155.06;1723405;81;20171;-81
2022/02/22 10:14:23;;;;;;;;;;;;;;;8.26;63.90;99168.38;1713414;83;20616;-81
2022/02/22 10:16:49;;;;;;;;;;;;;;;8.11;63.05;99173.97;1706650;83;21000;-79
2022/02/22 10:19:17;;;;;;;;;;;;;;;8.04;62.57;99190.06;1721567;83;20314;-81
2022/02/22 10:21:47;;;;;;;;;;;;;;;8.09;62.36;99190.38;1717295;83;20135;-80
2022/02/22 10:24:13;;;;;;;;;;;;;;;8.16;63.00;99184.81;1722906;83;21057;-80
2022/02/22 10:26:39;;;;;;;;;;;;;;;8.19;63.18;99184.48;1718782;83;20236;-80
2022/02/22 10:29:16;;;;;;;;;;;;;;;8.17;63.09;99203.55;1720581;83;22379;-80
2022/02/22 10:31:42;;;;;;;;;;;;;;;8.22;62.85;99182.83;1717719;81;20218;-81
2022/02/22 10:34:08;;;;;;;;;;;;;;;8.27;62.42;99219.16;1721887;83;20156;-81
2022/02/22 10:36:37;;;;;;;;;;;;;;;8.20;62.38;99196.66;1720298;83;21006;-81
2022/02/22 10:39:06;;;;;;;;;;;;;;;8.51;61.57;99193.35;1687305;83;37847;-79
2022/02/22 10:41:39;;;;;;;;;;;;;;;8.44;60.93;99201.60;1718562;83;21167;-80
2022/02/22 10:44:04;;;;;;;;;;;;;;;8.29;61.26;99213.73;1718736;83;20213;-80
2022/02/22 10:46:32;;;;;;;;;;;;;;;8.35;60.61;99210.45;1720874;82;20120;-82
2022/02/22 10:49:07;;;;;;;;;;;;;;;8.34;60.82;99204.84;1723317;83;20171;-80
2022/02/22 10:51:39;;;;;;;;;;;;;;;8.48;60.48;99207.34;1721452;82;20156;-80
2022/02/22 10:54:04;;;;;;;;;;;;;;;8.41;60.23;99226.89;1722199;83;21120;-80
2022/02/22 10:56:30;;;;;;;;;;;;;;;8.33;60.74;99205.35;1718689;83;20238;-80
2022/02/22 10:58:57;;;;;;;;;;;;;;;8.15;60.75;99226.55;1719764;83;20198;-81
2022/02/22 11:01:23;;;;;;;;;;;;;;;8.37;60.35;99224.25;1723295;83;20172;-80
2022/02/22 11:03:50;;;;;;;;;;;;;;;8.51;60.04;99215.72;1701674;83;20214;-80
2022/02/22 11:06:15;;;;;;;;;;;;;;;8.34;59.98;99222.77;1719851;83;21875;-81
2022/02/22 11:08:46;;;;;;;;;;;;;;;8.36;59.95;99218.65;1734102;79;20865;-80
2022/02/22 11:11:15;;;;;;;;;;;;;;;8.38;59.92;99233.80;1763426;79;20125;-80
2022/02/22 11:13:41;;;;;;;;;;;;;;;8.38;60.37;99227.22;1752769;79;20580;-81
2022/02/22 11:16:09;;;;;;;;;;;;;;;8.51;60.24;99236.77;1759576;79;20126;-81
2022/02/22 11:18:47;;;;;;;;;;;;;;;8.46;60.90;99231.19;1760654;79;21160;-80
2022/02/22 11:21:12;;;;;;;;;;;;;;;8.58;61.43;99229.05;1754917;79;20554;-81
2022/02/22 11:23:38;;;;;;;;;;;;;;;8.87;60.87;99225.05;1749029;79;20195;-82
2022/02/22 11:26:07;;;;;;;;;;;;;;;8.48;60.71;99227.08;1748793;79;20152;-81
2022/02/22 11:28:38;;;;;;;;;;;;;;;8.89;59.83;99246.78;1761451;79;20491;-80
2022/02/22 11:31:05;;;;;;;;;;;;;;;9.06;59.09;99239.64;1748537;79;21958;-80
2022/02/22 11:33:40;;;;;;;;;;;;;;;9.04;59.33;99236.36;1749299;80;20975;-80
2022/02/22 11:36:08;;;;;;;;;;;;;;;8.78;60.35;99252.71;1758315;79;20206;-81
2022/02/22 11:38:41;;;;;;;;;;;;;;;8.83;60.62;99249.58;1753443;79;20483;-81
2022/02/22 11:41:14;;;;;;;;;;;;;;;8.91;60.35;99246.92;1754724;79;20220;-81
2022/02/22 11:43:58;;;;;;;;;;;;;;;9.04;59.72;99242.95;1745787;81;21155;-82
2022/02/22 11:46:36;;;;;;;;;;;;;;;8.58;58.48;99275.92;1752040;79;20102;-81
2022/02/22 11:49:04;;;;;;;;;;;;;;;8.52;57.48;99262.10;1756192;79;20209;-79
2022/02/22 11:51:39;;;;;;;;;;;;;;;8.73;57.04;99260.77;1746722;79;20481;-79
2022/02/22 11:54:13;;;;;;;;;;;;;;;8.72;57.25;99264.41;1745399;79;20113;-79
2022/02/22 11:56:39;;;;;;;;;;;;;;;8.97;55.75;99287.06;1753165;79;22603;-79
2022/02/22 11:59:21;;;;;;;;;;;;;;;8.75;55.31;99268.02;1753565;79;20155;-79
2022/02/22 12:01:49;;;;;;;;;;;;;;;8.95;54.80;99265.36;1750686;79;20234;-80
2022/02/22 12:04:22;;;;;;;;;;;;;;;9.18;54.49;99263.31;1750844;79;20206;-80
2022/02/22 12:06:48;;;;;;;;;;;;;;;9.05;54.66;99298.59;1753349;79;20282;-79
2022/02/22 12:09:15;;;;;;;;;;;;;;;8.94;54.84;99268.97;1744451;81;21221;-79
2022/02/22 12:11:40;;;;;;;;;;;;;;;9.03;54.54;99319.02;1727587;80;20275;-79
2022/02/22 12:14:14;;;;;;;;;;;;;;;8.94;54.96;99295.80;1731875;80;20304;-79
2022/02/22 12:16:43;;;;;;;;;;;;;;;9.14;54.37;99285.23;1730693;82;20995;-79
2022/02/22 12:19:11;;;;;;;;;;;;;;;9.22;54.51;99292.28;1739270;80;20461;-80
2022/02/22 12:21:37;;;;;;;;;;;;;;;9.10;54.34;99289.68;1732363;80;20203;-80
2022/02/22 12:24:04;;;;;;;;;;;;;;;9.04;54.81;99281.94;1731435;82;20359;-81
2022/02/22 12:26:29;;;;;;;;;;;;;;;8.83;55.84;99302.23;1733109;82;20150;-80
2022/02/22 12:28:58;;;;;;;;;;;;;;;8.80;56.06;99314.41;1728528;80;20208;-81
2022/02/22 12:31:43;;;;;;;;;;;;;;;8.90;55.97;99308.48;1735172;82;20591;-81
2022/02/22 12:34:13;;;;;;;;;;;;;;;8.85;55.97;99301.56;1734503;82;21331;-82
2022/02/22 12:36:41;;;;;;;;;;;;;;;8.92;56.14;99292.02;1732911;82;20269;-81
2022/02/22 12:39:09;;;;;;;;;;;;;;;8.92;56.51;99301.23;1730959;82;20126;-80
2022/02/22 12:41:40;;;;;;;;;;;;;;;9.24;56.04;99306.10;1744554;80;20230;-82
2022/02/22 12:44:09;;;;;;;;;;;;;;;8.79;57.86;99316.70;1745274;80;20107;-84
2022/02/22 12:46:37;;;;;;;;;;;;;;;8.92;58.99;99342.05;1744211;81;21078;-83
2022/02/22 12:49:04;;;;;;;;;;;;;;;8.68;61.89;99320.98;1702702;82;20114;-82
2022/02/22 12:51:30;;;;;;;;;;;;;;;8.58;62.23;99349.60;1743168;81;20166;-82
2022/02/22 12:54:08;;;;;;;;;;;;;;;8.62;63.28;99332.98;1725153;81;20153;-79